Beckwourth, CA

4:10 PM PST on November 22, 2014 (GMT -0800)
KCAPORTO2 | Change Station
CLOSE
Current Station
Personal Weather Station
Location: Portola, CA
Elevation: 4923 ft
Nearby Weather Stations

Elev 4923 ft 39.82 °N, 120.47 °W | Updated 11 seconds ago

Overcast
Overcast
41.5 °F
Feels Like 42 °F
N
2.0
Wind Variable Wind from SW
Gusts 5.0 mph

Today
High -- | Low -- °F
--% Chance of Precip.
Yesterday
High -- | Low -- °F
Precip. -- in
6:54 AM 4:40 PM
New Moon, 0% visible
Pressure 30.06 in
Visibility 10.0 miles
Clouds Few 5000 ft
Few 6500 ft
Windchill 42 °F
Dew Point 32 °F
Humidity 67%
Rainfall 0.09 in
Snow Depth Not available.
UV 0 out of 12
Pollen 2.60 out of 12
Air Quality Not available.
Flu Activity Not available.
METAR KRTS 222355Z AUTO 31024G32KT 10SM FEW050 FEW065 06/00 A3006 RMK AO2 P0001

More Conditions Fewer Conditions

Pressure 30.06 in
Visibility 10.0 miles
Clouds Few 5000 ft
Few 6500 ft
Windchill 42 °F
Dew Point 32 °F
Humidity 67%
Rainfall 0.09 in
Snow Depth Not available.
UV 0 out of 12
Pollen 2.60 out of 12
Air Quality Not available.
Flu Activity Not available.
METAR KRTS 222355Z AUTO 31024G32KT 10SM FEW050 FEW065 06/00 A3006 RMK AO2 P0001

More Conditions Fewer Conditions

10-Day Weather Forecast

Almanac

Astronomy

Nov. 22, 2014 Rise Set
Actual Time
Civil Twilight
Nautical Twilight
Astronomical Twilight
Moon
Length of Visible Light
Length of Day
Tomorrow will be .
, % of the Moon is Illuminated

Today's Extremes

State Highs State Lows

Community

WunderPhotos

Upload Photos

1,772,931 photos uploaded!

WunderBlogs® & News

Nearby

Air Quality

  Air Quality AQ Index Pollutant
Not available.

Snow Depth

Station Depth Elevation

Earthquake Activity

City Distance Mag. Time & Date
Minimum magnitude displayed is 2.5.

Coastal Water Temperatures

Place Temperature

Nearby Weather Stations